Time;durP1;ratioP1;P1;durP2;ratioP2;P2;SDS_P1;SDS_P2;PMS_P1;PMS_P2;Temp;Humidity;BMP_temperature;BMP_pressure;BME280_temperature;BME280_humidity;BME280_pressure;Samples;Min_cycle;Max_cycle;Signal;HPM_P1;HPM_P2
2022/08/01 00:01:41;;;;;;;;;;;25.40;94.60;;;;;;5122262;28;20316;-12
2022/08/01 00:04:06;;;;;;;;;;;25.40;94.40;;;;;;5121605;28;19918;-12
2022/08/01 00:06:32;;;;;;;;;;;25.40;94.40;;;;;;5122198;28;20204;-12
2022/08/01 00:08:58;;;;;;;;;;;25.40;94.40;;;;;;5121894;28;19908;-12
2022/08/01 00:11:23;;;;;;;;;;;25.40;94.80;;;;;;5121946;28;19910;-12
2022/08/01 00:13:49;;;;;;;;;;;25.40;95.10;;;;;;5121925;28;20352;-12
2022/08/01 00:16:15;;;;;;;;;;;25.40;94.60;;;;;;5122319;28;20327;-12
2022/08/01 00:18:41;;;;;;;;;;;25.40;94.60;;;;;;5121996;28;19904;-12
2022/08/01 00:21:06;;;;;;;;;;;25.40;94.50;;;;;;5121802;28;20006;-12
2022/08/01 00:23:32;;;;;;;;;;;25.40;94.60;;;;;;5121704;28;19903;-12
2022/08/01 00:25:58;;;;;;;;;;;25.40;94.60;;;;;;5120778;28;19904;-12
2022/08/01 00:28:23;;;;;;;;;;;25.40;95.10;;;;;;5119798;28;19919;-12
2022/08/01 00:30:49;;;;;;;;;;;25.40;94.70;;;;;;5121338;28;19946;-12
2022/08/01 00:33:15;;;;;;;;;;;25.40;94.60;;;;;;5103196;28;19908;-12
2022/08/01 00:35:40;;;;;;;;;;;25.40;94.70;;;;;;5121287;28;19938;-12
2022/08/01 00:38:07;;;;;;;;;;;25.40;95.20;;;;;;5120341;28;19931;-12
2022/08/01 00:40:33;;;;;;;;;;;25.30;94.80;;;;;;5121260;28;20435;-12
2022/08/01 00:42:58;;;;;;;;;;;25.30;95.60;;;;;;5121219;28;19911;-12
2022/08/01 00:45:24;;;;;;;;;;;25.30;96.00;;;;;;5121348;28;19930;-12
2022/08/01 00:47:49;;;;;;;;;;;25.30;95.50;;;;;;5120804;28;19914;-12
2022/08/01 00:50:15;;;;;;;;;;;25.30;95.40;;;;;;5103492;28;19904;-12
2022/08/01 00:52:41;;;;;;;;;;;25.20;95.30;;;;;;5121222;28;19913;-12
2022/08/01 00:55:08;;;;;;;;;;;25.20;95.00;;;;;;5121374;28;20313;-12
2022/08/01 00:57:34;;;;;;;;;;;25.20;95.10;;;;;;5120748;28;19957;-12
2022/08/01 01:00:00;;;;;;;;;;;25.30;95.30;;;;;;5103050;28;19904;-12
2022/08/01 01:02:25;;;;;;;;;;;25.30;95.20;;;;;;5120618;28;19926;-12
2022/08/01 01:04:51;;;;;;;;;;;25.30;95.30;;;;;;5120623;28;19903;-12
2022/08/01 01:07:20;;;;;;;;;;;25.30;94.90;;;;;;5120104;28;20103;-12
2022/08/01 01:10:19;;;;;;;;;;;25.30;94.90;;;;;;5103236;28;20246;-12
2022/08/01 01:12:51;;;;;;;;;;;25.30;95.40;;;;;;5075825;28;19935;-12
2022/08/01 01:15:16;;;;;;;;;;;25.20;95.00;;;;;;5120339;28;20238;-12
2022/08/01 01:17:51;;;;;;;;;;;25.20;95.00;;;;;;5120931;28;19907;-12
2022/08/01 01:20:18;;;;;;;;;;;25.20;95.00;;;;;;5120613;28;19904;-12
2022/08/01 01:22:53;;;;;;;;;;;25.30;95.20;;;;;;5102171;28;20196;-12
2022/08/01 01:25:26;;;;;;;;;;;25.20;95.00;;;;;;5120268;28;19939;-12
2022/08/01 01:28:01;;;;;;;;;;;25.20;95.00;;;;;;5120103;28;19911;-12
2022/08/01 01:30:28;;;;;;;;;;;25.20;95.10;;;;;;5120214;28;19904;-12
2022/08/01 01:33:02;;;;;;;;;;;25.20;95.00;;;;;;5102112;28;19903;-12
2022/08/01 01:35:30;;;;;;;;;;;25.20;94.90;;;;;;5102414;28;20283;-12
2022/08/01 01:37:59;;;;;;;;;;;25.20;95.10;;;;;;5119867;28;19954;-12
2022/08/01 01:40:25;;;;;;;;;;;25.20;94.80;;;;;;5120471;28;19903;-12
2022/08/01 01:42:52;;;;;;;;;;;25.20;94.90;;;;;;5119998;28;19908;-12
2022/08/01 01:45:18;;;;;;;;;;;25.20;94.90;;;;;;5119694;28;19998;-12
2022/08/01 01:47:45;;;;;;;;;;;25.20;95.10;;;;;;5120171;28;19998;-12
2022/08/01 01:50:11;;;;;;;;;;;25.20;95.00;;;;;;5119640;28;19922;-12
2022/08/01 01:52:40;;;;;;;;;;;25.20;94.90;;;;;;5120596;28;20318;-12
2022/08/01 01:55:07;;;;;;;;;;;25.20;95.20;;;;;;5119811;28;19922;-12
2022/08/01 01:57:35;;;;;;;;;;;25.20;95.10;;;;;;5119898;28;19908;-12
2022/08/01 02:00:01;;;;;;;;;;;25.20;95.00;;;;;;5119763;28;19903;-12
2022/08/01 02:02:28;;;;;;;;;;;25.20;94.90;;;;;;5119740;28;19903;-12
2022/08/01 02:04:53;;;;;;;;;;;25.20;95.00;;;;;;5119530;28;19946;-12
2022/08/01 02:07:21;;;;;;;;;;;25.20;95.20;;;;;;5101757;28;19942;-12
2022/08/01 02:09:47;;;;;;;;;;;25.20;95.40;;;;;;5119110;28;19914;-12
2022/08/01 02:12:14;;;;;;;;;;;25.20;95.40;;;;;;5119483;28;19974;-12
2022/08/01 02:14:40;;;;;;;;;;;25.20;95.00;;;;;;5101501;28;20249;-12
2022/08/01 02:17:06;;;;;;;;;;;25.20;95.00;;;;;;5119319;28;19912;-12
2022/08/01 02:19:32;;;;;;;;;;;25.20;95.30;;;;;;5119887;28;20260;-12
2022/08/01 02:22:05;;;;;;;;;;;25.20;95.00;;;;;;5101425;28;19960;-12
2022/08/01 02:24:36;;;;;;;;;;;25.20;95.00;;;;;;5118863;28;19903;-12
2022/08/01 02:27:05;;;;;;;;;;;25.20;95.10;;;;;;5119026;28;19903;-12
2022/08/01 02:29:51;;;;;;;;;;;25.20;95.00;;;;;;5101060;28;20230;-12
2022/08/01 02:32:23;;;;;;;;;;;25.20;94.90;;;;;;5087068;28;19914;-12
2022/08/01 02:34:51;;;;;;;;;;;25.20;94.90;;;;;;5119120;28;19899;-12
2022/08/01 02:37:18;;;;;;;;;;;25.20;95.00;;;;;;5101564;28;20364;-12
2022/08/01 02:39:47;;;;;;;;;;;25.20;95.30;;;;;;5101097;28;19903;-12
2022/08/01 02:42:14;;;;;;;;;;;25.20;95.20;;;;;;5118876;28;19914;-12
2022/08/01 02:44:42;;;;;;;;;;;25.20;95.20;;;;;;5119069;28;20280;-12
2022/08/01 02:47:09;;;;;;;;;;;25.20;95.10;;;;;;5118640;28;19926;-12
2022/08/01 02:49:46;;;;;;;;;;;25.20;95.50;;;;;;5101095;28;19939;-12
2022/08/01 02:52:13;;;;;;;;;;;25.10;95.20;;;;;;5118727;28;19958;-12
2022/08/01 02:54:40;;;;;;;;;;;25.20;95.20;;;;;;5118658;28;19904;-12
2022/08/01 02:57:06;;;;;;;;;;;25.10;95.60;;;;;;5118493;28;20300;-12
2022/08/01 02:59:32;;;;;;;;;;;25.10;95.10;;;;;;5100806;28;19904;-12
2022/08/01 03:01:59;;;;;;;;;;;25.10;95.40;;;;;;5100278;28;20254;-12
2022/08/01 03:04:26;;;;;;;;;;;25.10;95.20;;;;;;5117802;28;19903;-12
2022/08/01 03:06:53;;;;;;;;;;;25.10;95.20;;;;;;5101551;28;19994;-12
2022/08/01 03:09:19;;;;;;;;;;;25.10;95.30;;;;;;5117978;28;19908;-12
2022/08/01 03:11:46;;;;;;;;;;;25.10;95.40;;;;;;5101006;28;19904;-12
2022/08/01 03:14:14;;;;;;;;;;;25.10;95.20;;;;;;5118054;28;19903;-12
2022/08/01 03:16:41;;;;;;;;;;;25.10;95.30;;;;;;5100934;28;20466;-12
2022/08/01 03:19:08;;;;;;;;;;;25.10;95.70;;;;;;5118697;28;20257;-12
2022/08/01 03:21:34;;;;;;;;;;;25.10;95.30;;;;;;5100512;28;20261;-12
2022/08/01 03:24:03;;;;;;;;;;;25.10;95.60;;;;;;5100772;28;19915;-12
2022/08/01 03:26:30;;;;;;;;;;;25.10;95.50;;;;;;5118569;28;19904;-12
2022/08/01 03:28:58;;;;;;;;;;;25.00;95.70;;;;;;5118172;28;20273;-12
2022/08/01 03:31:25;;;;;;;;;;;25.00;96.00;;;;;;5100317;28;20301;-12
2022/08/01 03:33:52;;;;;;;;;;;25.00;95.90;;;;;;5118313;28;19979;-12
2022/08/01 03:36:20;;;;;;;;;;;25.00;95.60;;;;;;5118619;28;20273;-12
2022/08/01 03:38:47;;;;;;;;;;;25.00;95.80;;;;;;5118527;28;19912;-12
2022/08/01 03:41:15;;;;;;;;;;;25.00;95.90;;;;;;5100525;28;19987;-12
2022/08/01 03:43:45;;;;;;;;;;;25.00;96.30;;;;;;5117809;28;19929;-12
2022/08/01 03:46:13;;;;;;;;;;;24.90;96.20;;;;;;5100270;28;20002;-12
2022/08/01 03:48:43;;;;;;;;;;;24.90;96.20;;;;;;5100157;28;20265;-12
2022/08/01 03:51:10;;;;;;;;;;;24.90;96.30;;;;;;5118014;28;20459;-12
2022/08/01 03:53:36;;;;;;;;;;;24.90;96.20;;;;;;5100703;28;20002;-12
2022/08/01 03:56:02;;;;;;;;;;;24.90;96.00;;;;;;5100002;28;19908;-12
2022/08/01 03:58:29;;;;;;;;;;;24.90;95.90;;;;;;5100580;28;19904;-12
2022/08/01 04:00:56;;;;;;;;;;;24.90;95.80;;;;;;5100181;28;20002;-12
2022/08/01 04:03:22;;;;;;;;;;;24.90;95.90;;;;;;5118083;28;20238;-12
2022/08/01 04:05:48;;;;;;;;;;;24.90;96.10;;;;;;5118169;28;19912;-12
2022/08/01 04:08:13;;;;;;;;;;;24.90;96.00;;;;;;5100473;28;19907;-12
2022/08/01 04:10:40;;;;;;;;;;;24.90;95.90;;;;;;5118022;28;20044;-12
2022/08/01 04:13:05;;;;;;;;;;;24.90;95.80;;;;;;5102061;28;19935;-12
2022/08/01 04:15:31;;;;;;;;;;;24.90;95.70;;;;;;5121691;28;20020;-12
2022/08/01 04:17:56;;;;;;;;;;;24.90;95.80;;;;;;5121044;28;19937;-12
2022/08/01 04:20:22;;;;;;;;;;;24.90;95.80;;;;;;5121601;28;20260;-12
2022/08/01 04:22:48;;;;;;;;;;;24.90;95.80;;;;;;5103179;28;19977;-12
2022/08/01 04:25:27;;;;;;;;;;;24.90;95.80;;;;;;5121152;28;19904;-12
2022/08/01 04:27:53;;;;;;;;;;;24.90;95.70;;;;;;5103323;28;19908;-12
2022/08/01 04:30:21;;;;;;;;;;;24.90;95.80;;;;;;5103749;28;19908;-12
2022/08/01 04:32:47;;;;;;;;;;;24.90;96.00;;;;;;5120029;28;19904;-12
2022/08/01 04:35:16;;;;;;;;;;;24.90;96.10;;;;;;5103242;28;19904;-12
2022/08/01 04:37:42;;;;;;;;;;;24.90;96.00;;;;;;5103399;28;19956;-12
2022/08/01 04:40:09;;;;;;;;;;;24.90;95.90;;;;;;5103211;28;19977;-12
2022/08/01 04:42:35;;;;;;;;;;;24.90;95.90;;;;;;5120446;28;19903;-12
2022/08/01 04:45:01;;;;;;;;;;;24.90;95.70;;;;;;5120966;28;19904;-12
2022/08/01 04:47:27;;;;;;;;;;;24.90;95.70;;;;;;5120713;28;19907;-12
2022/08/01 04:49:53;;;;;;;;;;;24.90;95.80;;;;;;5120625;28;19914;-12
2022/08/01 04:52:19;;;;;;;;;;;24.90;95.70;;;;;;5120545;28;19972;-12
2022/08/01 04:54:46;;;;;;;;;;;24.90;95.70;;;;;;5102883;28;20294;-12
2022/08/01 04:57:11;;;;;;;;;;;24.90;95.80;;;;;;5102956;28;19904;-12
2022/08/01 04:59:41;;;;;;;;;;;25.00;96.00;;;;;;5119965;28;19914;-12
2022/08/01 05:02:11;;;;;;;;;;;24.90;95.80;;;;;;5102452;28;19926;-12
2022/08/01 05:04:38;;;;;;;;;;;25.00;95.70;;;;;;5119974;28;19933;-12
2022/08/01 05:07:04;;;;;;;;;;;25.00;95.60;;;;;;5120724;28;20539;-12
2022/08/01 05:09:30;;;;;;;;;;;25.00;95.60;;;;;;5120288;28;19919;-12
2022/08/01 05:11:58;;;;;;;;;;;25.00;95.50;;;;;;5102967;28;19904;-12
2022/08/01 05:14:27;;;;;;;;;;;25.00;95.80;;;;;;5102896;28;19965;-12
2022/08/01 05:16:53;;;;;;;;;;;25.00;95.50;;;;;;5120600;28;19912;-12
2022/08/01 05:19:19;;;;;;;;;;;25.00;95.50;;;;;;5102665;28;19908;-12
2022/08/01 05:21:45;;;;;;;;;;;25.10;95.50;;;;;;5120473;28;19914;-12
2022/08/01 05:24:10;;;;;;;;;;;25.10;95.50;;;;;;5119564;28;20230;-12
2022/08/01 05:26:37;;;;;;;;;;;25.00;95.60;;;;;;5119985;28;19904;-12
2022/08/01 05:29:03;;;;;;;;;;;25.00;95.70;;;;;;5101770;28;19918;-12
2022/08/01 05:31:28;;;;;;;;;;;25.00;95.50;;;;;;5101248;28;19931;-12
2022/08/01 05:33:54;;;;;;;;;;;25.00;95.60;;;;;;5118939;28;20209;-12
2022/08/01 05:36:20;;;;;;;;;;;25.00;95.50;;;;;;5118430;28;19998;-12
2022/08/01 05:38:45;;;;;;;;;;;25.00;95.60;;;;;;5101372;28;19968;-12
2022/08/01 05:41:11;;;;;;;;;;;25.00;95.60;;;;;;5100746;28;19903;-12
2022/08/01 05:43:36;;;;;;;;;;;25.10;95.70;;;;;;5101443;28;19915;-12
2022/08/01 05:46:02;;;;;;;;;;;25.10;95.40;;;;;;5119158;28;20319;-12
2022/08/01 05:48:28;;;;;;;;;;;25.10;95.50;;;;;;5119579;28;20476;-12
2022/08/01 05:50:54;;;;;;;;;;;25.10;95.50;;;;;;5119155;28;20002;-12
2022/08/01 05:53:19;;;;;;;;;;;25.10;95.40;;;;;;5101850;28;19911;-12
2022/08/01 05:55:45;;;;;;;;;;;25.20;95.70;;;;;;5100706;28;19903;-12
2022/08/01 05:58:11;;;;;;;;;;;25.20;95.60;;;;;;5119123;28;19914;-12
2022/08/01 06:00:37;;;;;;;;;;;25.20;95.50;;;;;;5100946;28;19904;-12
2022/08/01 06:03:02;;;;;;;;;;;25.20;95.50;;;;;;5101148;28;19992;-12
2022/08/01 06:05:28;;;;;;;;;;;25.20;95.10;;;;;;5118426;28;20373;-12
2022/08/01 06:07:54;;;;;;;;;;;25.20;95.40;;;;;;5100352;28;19915;-12
2022/08/01 06:10:19;;;;;;;;;;;25.20;95.20;;;;;;5100645;28;19980;-12
2022/08/01 06:12:45;;;;;;;;;;;25.20;95.70;;;;;;5118237;28;20002;-12
2022/08/01 06:15:11;;;;;;;;;;;25.20;95.50;;;;;;5100447;28;19958;-12
2022/08/01 06:17:37;;;;;;;;;;;25.20;95.30;;;;;;5118163;28;19908;-12
2022/08/01 06:20:03;;;;;;;;;;;25.20;95.90;;;;;;5118393;28;20322;-12
2022/08/01 06:22:29;;;;;;;;;;;25.20;95.60;;;;;;5117779;28;19907;-12
2022/08/01 06:24:54;;;;;;;;;;;25.30;95.70;;;;;;5117744;28;19915;-12
2022/08/01 06:27:24;;;;;;;;;;;25.40;96.10;;;;;;5118359;28;19927;-12
2022/08/01 06:29:53;;;;;;;;;;;25.60;94.70;;;;;;5118107;28;19908;-12
2022/08/01 06:32:19;;;;;;;;;;;26.00;93.70;;;;;;5100548;28;19908;-12
2022/08/01 06:34:44;;;;;;;;;;;26.30;92.70;;;;;;5117613;28;19957;-12
2022/08/01 06:37:12;;;;;;;;;;;26.30;92.40;;;;;;5117459;28;19904;-12
2022/08/01 06:39:38;;;;;;;;;;;26.30;91.90;;;;;;5117228;28;19903;-12
2022/08/01 06:42:04;;;;;;;;;;;26.30;92.20;;;;;;5117778;28;20010;-12
2022/08/01 06:44:29;;;;;;;;;;;26.20;92.50;;;;;;5117964;28;19904;-12
2022/08/01 06:47:00;;;;;;;;;;;26.30;92.30;;;;;;5117639;28;19903;-12
2022/08/01 06:49:25;;;;;;;;;;;26.40;91.70;;;;;;5117454;28;19930;-12
2022/08/01 06:51:51;;;;;;;;;;;26.60;90.90;;;;;;5117240;28;20408;-12
2022/08/01 06:54:17;;;;;;;;;;;26.70;90.40;;;;;;5117183;28;19904;-12
2022/08/01 06:56:42;;;;;;;;;;;26.90;90.40;;;;;;5117119;28;20340;-12
2022/08/01 06:59:08;;;;;;;;;;;27.00;88.00;;;;;;5117375;28;19984;-12
2022/08/01 07:01:34;;;;;;;;;;;27.40;86.00;;;;;;5099693;28;19911;-12
2022/08/01 07:03:59;;;;;;;;;;;27.40;84.10;;;;;;5099046;28;19903;-12
2022/08/01 07:06:33;;;;;;;;;;;27.60;83.20;;;;;;5116857;28;19914;-12
2022/08/01 07:09:00;;;;;;;;;;;27.80;81.20;;;;;;5116731;28;19911;-12
2022/08/01 07:11:26;;;;;;;;;;;28.10;79.10;;;;;;5117442;28;19969;-12
2022/08/01 07:13:51;;;;;;;;;;;28.50;77.30;;;;;;5099358;28;19903;-12
2022/08/01 07:16:17;;;;;;;;;;;28.30;75.50;;;;;;5116724;28;19908;-12
2022/08/01 07:18:43;;;;;;;;;;;28.20;76.10;;;;;;5116454;28;19998;-12
2022/08/01 07:21:09;;;;;;;;;;;28.00;77.70;;;;;;5116691;28;20292;-12
2022/08/01 07:23:35;;;;;;;;;;;27.70;80.00;;;;;;5116872;28;19914;-12
2022/08/01 07:26:02;;;;;;;;;;;27.50;82.10;;;;;;5117082;28;19907;-12
2022/08/01 07:28:28;;;;;;;;;;;27.30;83.20;;;;;;5116842;28;19973;-12
2022/08/01 07:30:54;;;;;;;;;;;27.30;83.60;;;;;;5099510;28;19903;-12
2022/08/01 07:33:20;;;;;;;;;;;27.20;84.40;;;;;;5115759;28;19904;-12
2022/08/01 07:35:45;;;;;;;;;;;27.10;85.60;;;;;;5116591;28;19942;-12
2022/08/01 07:38:11;;;;;;;;;;;27.20;86.30;;;;;;5116778;28;19908;-12
2022/08/01 07:40:37;;;;;;;;;;;27.70;82.80;;;;;;5099140;28;19908;-12
2022/08/01 07:43:02;;;;;;;;;;;27.60;81.20;;;;;;5116719;28;19911;-12
2022/08/01 07:45:28;;;;;;;;;;;28.00;80.20;;;;;;5098152;28;19956;-12
2022/08/01 07:47:54;;;;;;;;;;;29.60;70.80;;;;;;5118868;28;19919;-12
2022/08/01 07:50:19;;;;;;;;;;;29.30;68.20;;;;;;5103210;28;20261;-12
2022/08/01 07:52:45;;;;;;;;;;;28.70;71.30;;;;;;5102831;28;19911;-12
2022/08/01 07:55:11;;;;;;;;;;;28.30;74.10;;;;;;5119277;28;19969;-12
2022/08/01 07:57:37;;;;;;;;;;;28.10;75.70;;;;;;5102374;28;20126;-12
2022/08/01 08:00:04;;;;;;;;;;;28.80;71.50;;;;;;5120464;28;20511;-12
2022/08/01 08:02:30;;;;;;;;;;;29.20;69.90;;;;;;5103076;28;19913;-12
2022/08/01 08:04:56;;;;;;;;;;;30.00;65.10;;;;;;5102999;28;19947;-12
2022/08/01 08:07:21;;;;;;;;;;;30.70;62.60;;;;;;5120387;28;19950;-12
2022/08/01 08:09:47;;;;;;;;;;;31.70;59.30;;;;;;5101743;28;19907;-12
2022/08/01 08:12:12;;;;;;;;;;;31.00;59.10;;;;;;5102323;28;19911;-12
2022/08/01 08:14:38;;;;;;;;;;;30.20;60.60;;;;;;5102287;28;19904;-12
2022/08/01 08:17:04;;;;;;;;;;;31.10;60.00;;;;;;5119810;28;19922;-12
2022/08/01 08:19:32;;;;;;;;;;;31.10;59.10;;;;;;5120009;28;19912;-12
2022/08/01 08:21:58;;;;;;;;;;;32.00;57.90;;;;;;5119889;28;20000;-12
2022/08/01 08:24:25;;;;;;;;;;;31.70;57.00;;;;;;5119051;28;19904;-12
2022/08/01 08:26:55;;;;;;;;;;;32.30;57.10;;;;;;5119155;28;19911;-12
2022/08/01 08:29:21;;;;;;;;;;;32.00;56.60;;;;;;5119795;28;20002;-10
2022/08/01 08:31:48;;;;;;;;;;;31.70;57.10;;;;;;5119527;28;19903;-10
2022/08/01 08:34:14;;;;;;;;;;;31.40;57.00;;;;;;5100847;28;19951;-10
2022/08/01 08:36:40;;;;;;;;;;;30.60;58.00;;;;;;5118721;28;19950;-10
2022/08/01 08:39:06;;;;;;;;;;;30.10;59.30;;;;;;5101553;28;19911;-10
2022/08/01 08:41:38;;;;;;;;;;;29.60;61.20;;;;;;5119219;28;20345;-10
2022/08/01 08:44:05;;;;;;;;;;;29.30;63.10;;;;;;5119578;28;19956;-10
2022/08/01 08:46:32;;;;;;;;;;;30.70;61.10;;;;;;5101636;28;20185;-10
2022/08/01 08:48:58;;;;;;;;;;;31.30;58.40;;;;;;5119023;28;19907;-10
2022/08/01 08:51:30;;;;;;;;;;;31.00;58.10;;;;;;5119438;28;19989;-10
2022/08/01 08:53:56;;;;;;;;;;;30.40;58.90;;;;;;5119209;28;19904;-10
2022/08/01 08:56:23;;;;;;;;;;;29.80;60.30;;;;;;5101442;28;19927;-10
2022/08/01 08:58:50;;;;;;;;;;;29.70;61.90;;;;;;5100312;28;19915;-10
2022/08/01 09:01:17;;;;;;;;;;;29.50;62.50;;;;;;5118430;28;19945;-10
2022/08/01 09:03:43;;;;;;;;;;;29.30;63.80;;;;;;5118893;28;19998;-10
2022/08/01 09:06:09;;;;;;;;;;;29.10;64.60;;;;;;5118923;28;19999;-10
2022/08/01 09:08:35;;;;;;;;;;;29.20;65.00;;;;;;5119148;28;19954;-10
2022/08/01 09:11:00;;;;;;;;;;;29.70;63.80;;;;;;5119180;28;19925;-10
2022/08/01 09:13:26;;;;;;;;;;;29.50;63.00;;;;;;5118924;28;19903;-10
2022/08/01 09:15:55;;;;;;;;;;;29.20;64.00;;;;;;5101014;28;19915;-10
2022/08/01 09:18:26;;;;;;;;;;;28.90;65.70;;;;;;5100949;28;19907;-10
2022/08/01 09:21:06;;;;;;;;;;;28.70;67.10;;;;;;5118551;28;19904;-10
2022/08/01 09:23:33;;;;;;;;;;;28.60;68.00;;;;;;5100864;28;19964;-10
2022/08/01 09:25:58;;;;;;;;;;;28.40;69.50;;;;;;5118984;28;19929;-10
2022/08/01 09:28:28;;;;;;;;;;;28.30;70.20;;;;;;5118546;28;19911;-10
2022/08/01 09:30:55;;;;;;;;;;;29.00;68.80;;;;;;5099734;28;19914;-10
2022/08/01 09:33:21;;;;;;;;;;;29.00;66.80;;;;;;5100058;28;19911;-10
2022/08/01 09:35:53;;;;;;;;;;;29.90;64.50;;;;;;5100397;28;19903;-10
2022/08/01 09:38:20;;;;;;;;;;;30.90;60.50;;;;;;5100621;28;19918;-10
2022/08/01 09:40:52;;;;;;;;;;;31.50;58.40;;;;;;5100110;28;19915;-10
2022/08/01 09:43:18;;;;;;;;;;;31.10;58.00;;;;;;5099974;28;20190;-10
2022/08/01 09:45:44;;;;;;;;;;;30.80;58.70;;;;;;5118019;28;19904;-10
2022/08/01 09:48:12;;;;;;;;;;;30.20;59.50;;;;;;5117907;28;19918;-10
2022/08/01 09:50:45;;;;;;;;;;;29.70;61.10;;;;;;5099885;28;19903;-10
2022/08/01 09:53:11;;;;;;;;;;;29.40;62.60;;;;;;5117779;28;20304;-10
2022/08/01 09:55:38;;;;;;;;;;;29.40;63.60;;;;;;5099950;28;19904;-10
2022/08/01 09:58:04;;;;;;;;;;;29.40;63.80;;;;;;5100051;28;19903;-10
2022/08/01 10:00:31;;;;;;;;;;;29.50;63.40;;;;;;5117065;28;20180;-10
2022/08/01 10:02:57;;;;;;;;;;;29.60;63.20;;;;;;5117309;28;20359;-10
2022/08/01 10:05:32;;;;;;;;;;;29.60;62.40;;;;;;5116726;28;19915;-10
2022/08/01 10:07:59;;;;;;;;;;;29.60;62.40;;;;;;5116798;28;19907;-10
2022/08/01 10:10:25;;;;;;;;;;;29.60;62.60;;;;;;5116859;28;20018;-10
2022/08/01 10:12:51;;;;;;;;;;;29.60;62.90;;;;;;5117527;28;19926;-10
2022/08/01 10:15:17;;;;;;;;;;;29.60;62.60;;;;;;5116781;28;20019;-11
2022/08/01 10:17:46;;;;;;;;;;;29.70;62.40;;;;;;5099047;28;20010;-11
2022/08/01 10:20:13;;;;;;;;;;;29.70;62.20;;;;;;5116319;28;19903;-11
2022/08/01 10:22:39;;;;;;;;;;;29.60;62.30;;;;;;5116734;28;20310;-11
2022/08/01 10:25:04;;;;;;;;;;;29.60;62.60;;;;;;5116852;28;19998;-11
2022/08/01 10:27:32;;;;;;;;;;;29.60;62.70;;;;;;5117202;28;19986;-11
2022/08/01 10:30:03;;;;;;;;;;;29.60;62.90;;;;;;5117158;28;19907;-11
2022/08/01 10:32:34;;;;;;;;;;;29.60;62.70;;;;;;5117159;28;19911;-11
2022/08/01 10:35:00;;;;;;;;;;;29.60;62.50;;;;;;5099230;28;19908;-11
2022/08/01 10:37:26;;;;;;;;;;;29.50;62.50;;;;;;5116597;28;19903;-11
2022/08/01 10:39:52;;;;;;;;;;;29.40;63.10;;;;;;5115897;28;20269;-11
2022/08/01 10:42:19;;;;;;;;;;;29.30;63.40;;;;;;5098943;28;19931;-11
2022/08/01 10:44:47;;;;;;;;;;;29.30;63.70;;;;;;5098060;28;19926;-11
2022/08/01 10:47:18;;;;;;;;;;;29.30;63.40;;;;;;5115969;28;19943;-11
2022/08/01 10:49:47;;;;;;;;;;;29.30;63.50;;;;;;5116738;28;19915;-11
2022/08/01 10:52:18;;;;;;;;;;;29.30;63.70;;;;;;5116796;28;20184;-11
2022/08/01 10:54:44;;;;;;;;;;;29.20;63.80;;;;;;5115584;28;20054;-11
2022/08/01 10:57:19;;;;;;;;;;;29.10;64.00;;;;;;5116276;28;20157;-11
2022/08/01 10:59:48;;;;;;;;;;;29.00;64.70;;;;;;5115555;28;20488;-11
2022/08/01 11:02:25;;;;;;;;;;;28.90;65.70;;;;;;5115370;28;19904;-11
2022/08/01 11:05:09;;;;;;;;;;;28.90;66.00;;;;;;5116050;28;19911;-11
2022/08/01 11:07:47;;;;;;;;;;;28.90;66.00;;;;;;5116440;28;20002;-11
2022/08/01 11:10:16;;;;;;;;;;;29.00;65.50;;;;;;5098524;28;19915;-11
2022/08/01 11:12:42;;;;;;;;;;;29.10;65.00;;;;;;5116173;28;20143;-11
2022/08/01 11:15:08;;;;;;;;;;;29.20;64.70;;;;;;5098602;28;19998;-11
2022/08/01 11:17:37;;;;;;;;;;;29.20;64.50;;;;;;5098514;28;20427;-11
2022/08/01 11:20:06;;;;;;;;;;;29.30;64.20;;;;;;5098883;28;19990;-11
2022/08/01 11:22:52;;;;;;;;;;;29.20;64.70;;;;;;5118525;28;19968;-11
2022/08/01 11:25:17;;;;;;;;;;;29.10;65.00;;;;;;5120955;28;19904;-11
2022/08/01 11:27:45;;;;;;;;;;;29.00;66.70;;;;;;5102533;28;19910;-11
2022/08/01 11:30:10;;;;;;;;;;;28.90;66.90;;;;;;5120556;28;19904;-11
2022/08/01 11:32:53;;;;;;;;;;;28.80;67.20;;;;;;5120112;28;19903;-11
2022/08/01 11:35:20;;;;;;;;;;;28.80;67.30;;;;;;5120207;28;19990;-11
2022/08/01 11:37:47;;;;;;;;;;;28.80;67.50;;;;;;5103131;28;19910;-11
2022/08/01 11:40:26;;;;;;;;;;;28.80;67.30;;;;;;5120276;28;19914;-11
2022/08/01 11:43:12;;;;;;;;;;;28.90;67.10;;;;;;5120227;28;20064;-11
2022/08/01 11:45:50;;;;;;;;;;;28.90;66.80;;;;;;5102418;28;20284;-11
2022/08/01 11:48:20;;;;;;;;;;;29.00;66.40;;;;;;5102512;28;19915;-11
2022/08/01 11:50:52;;;;;;;;;;;29.00;66.30;;;;;;5120272;28;20203;-11
2022/08/01 11:53:19;;;;;;;;;;;29.00;66.30;;;;;;5102534;28;19904;-11
2022/08/01 11:55:52;;;;;;;;;;;29.00;66.10;;;;;;5102363;28;20200;-11
2022/08/01 11:58:22;;;;;;;;;;;29.00;66.20;;;;;;5102408;28;19904;-11
2022/08/01 12:00:56;;;;;;;;;;;29.00;66.10;;;;;;5102252;28;19903;-11
2022/08/01 12:03:28;;;;;;;;;;;29.00;66.20;;;;;;5119494;28;19903;-11
2022/08/01 12:05:55;;;;;;;;;;;28.90;67.50;;;;;;5102520;28;19939;-11
2022/08/01 12:08:26;;;;;;;;;;;28.80;67.00;;;;;;5102250;28;19911;-11
2022/08/01 12:10:53;;;;;;;;;;;28.80;67.40;;;;;;5119764;28;19935;-11
2022/08/01 12:13:20;;;;;;;;;;;28.80;67.70;;;;;;5118548;28;19943;-11
2022/08/01 12:15:45;;;;;;;;;;;28.80;67.40;;;;;;5119633;28;19969;-11
2022/08/01 12:18:11;;;;;;;;;;;28.80;67.70;;;;;;5118982;28;19907;-11
2022/08/01 12:20:41;;;;;;;;;;;28.80;67.20;;;;;;5119192;28;19903;-11
2022/08/01 12:23:08;;;;;;;;;;;28.80;67.10;;;;;;5118948;28;19964;-11
2022/08/01 12:25:34;;;;;;;;;;;28.80;67.30;;;;;;5119412;28;20006;-11
2022/08/01 12:28:01;;;;;;;;;;;28.90;67.00;;;;;;5119447;28;19968;-11
2022/08/01 12:30:28;;;;;;;;;;;28.90;66.90;;;;;;5101738;28;19930;-11
2022/08/01 12:32:54;;;;;;;;;;;28.90;66.60;;;;;;5101488;28;20010;-11
2022/08/01 12:35:24;;;;;;;;;;;28.90;66.70;;;;;;5119468;28;20531;-11
2022/08/01 12:37:53;;;;;;;;;;;28.90;66.90;;;;;;5119304;28;19904;-11
2022/08/01 12:40:21;;;;;;;;;;;28.90;67.10;;;;;;5119213;28;19929;-11
2022/08/01 12:42:48;;;;;;;;;;;28.90;67.50;;;;;;5119608;28;19987;-11
2022/08/01 12:45:15;;;;;;;;;;;28.90;67.10;;;;;;5119014;28;19914;-11
2022/08/01 12:47:41;;;;;;;;;;;28.90;67.00;;;;;;5101842;28;20253;-11
2022/08/01 12:50:10;;;;;;;;;;;28.90;66.70;;;;;;5119214;28;19903;-11
2022/08/01 12:52:36;;;;;;;;;;;29.00;66.70;;;;;;5101689;28;20296;-11
2022/08/01 12:55:05;;;;;;;;;;;29.00;66.80;;;;;;5118936;28;19904;-11
2022/08/01 12:57:31;;;;;;;;;;;29.00;66.90;;;;;;5118736;28;19998;-11
2022/08/01 13:00:07;;;;;;;;;;;29.00;66.90;;;;;;5119541;28;19911;-11
2022/08/01 13:02:33;;;;;;;;;;;28.90;67.00;;;;;;5100334;28;19963;-11
2022/08/01 13:04:59;;;;;;;;;;;28.90;66.90;;;;;;5118960;28;19964;-11
2022/08/01 13:07:42;;;;;;;;;;;28.90;67.00;;;;;;5119175;28;20002;-11
2022/08/01 13:10:08;;;;;;;;;;;28.90;67.30;;;;;;5101002;28;19962;-11
2022/08/01 13:12:34;;;;;;;;;;;28.90;66.80;;;;;;5118885;28;19931;-11
2022/08/01 13:14:59;;;;;;;;;;;28.90;67.40;;;;;;5118432;28;19904;-11
2022/08/01 13:17:32;;;;;;;;;;;28.90;67.30;;;;;;5100551;28;19978;-11
2022/08/01 13:19:57;;;;;;;;;;;28.90;67.20;;;;;;5118575;28;19907;-11
2022/08/01 13:22:31;;;;;;;;;;;28.90;67.30;;;;;;5118792;28;20396;-11
2022/08/01 13:25:13;;;;;;;;;;;28.90;67.70;;;;;;5117641;28;19964;-11
2022/08/01 13:27:38;;;;;;;;;;;28.80;68.10;;;;;;5118841;28;19903;-11
2022/08/01 13:30:12;;;;;;;;;;;28.80;68.40;;;;;;5117807;28;19968;-11
2022/08/01 13:32:38;;;;;;;;;;;28.70;68.90;;;;;;5100473;28;19957;-11
2022/08/01 13:35:04;;;;;;;;;;;28.70;69.30;;;;;;5118050;28;19914;-11
2022/08/01 13:37:30;;;;;;;;;;;28.60;68.90;;;;;;5118620;28;19968;-11
2022/08/01 13:39:58;;;;;;;;;;;28.70;69.70;;;;;;5118193;28;20196;-11
2022/08/01 13:42:24;;;;;;;;;;;28.60;69.40;;;;;;5100907;28;20048;-11
2022/08/01 13:44:49;;;;;;;;;;;28.60;69.60;;;;;;5099453;28;20002;-11
2022/08/01 13:47:15;;;;;;;;;;;28.60;69.30;;;;;;5117873;28;19965;-11
2022/08/01 13:49:43;;;;;;;;;;;28.60;69.50;;;;;;5117305;28;19919;-11
2022/08/01 13:52:09;;;;;;;;;;;28.70;69.70;;;;;;5117597;28;20192;-11
2022/08/01 13:54:36;;;;;;;;;;;28.70;69.20;;;;;;5117893;28;19911;-11
2022/08/01 13:57:01;;;;;;;;;;;28.70;69.40;;;;;;5118066;28;19980;-11
2022/08/01 13:59:27;;;;;;;;;;;28.70;68.70;;;;;;5117444;28;19988;-11
2022/08/01 14:01:53;;;;;;;;;;;28.60;69.40;;;;;;5117405;28;19908;-11
2022/08/01 14:04:20;;;;;;;;;;;28.60;69.90;;;;;;5117717;28;19904;-11
2022/08/01 14:06:46;;;;;;;;;;;28.60;70.00;;;;;;5117972;28;20264;-11
2022/08/01 14:09:16;;;;;;;;;;;28.60;69.80;;;;;;5098707;28;20265;-11
2022/08/01 14:11:42;;;;;;;;;;;28.70;70.10;;;;;;5099776;28;19903;-11
2022/08/01 14:14:08;;;;;;;;;;;28.70;69.80;;;;;;5117106;28;19903;-11
2022/08/01 14:16:34;;;;;;;;;;;28.70;69.90;;;;;;5117305;28;19911;-11
2022/08/01 14:19:00;;;;;;;;;;;28.70;69.60;;;;;;5117077;28;19904;-11